Etusivu
METAR-TAF:

METAR-TAF

Lentoasemat :

Pecos, Texas, Yhdysvallat

Leveyspiiri: 31-22-56N, Pituuspiiri: 103-30-38W, korkeus merenpinnasta: 796 m

Tämänhetkinen sää

Tämä raportti tehtiin 21 minuuttia sitten, kello 16.55 UTC
Tuuli 7 kn kaakosta
Lämpötila 6°C
Kosteus 61%
Ilmanpaine 1018 hPa
Näkyvyys: 16.1 km
selkeää

METAR: KPEQ 131655Z AUTO 13007KT 10SM CLR 06/M01 A3007 RMK AO2 T00621007

Aika: 11:16 (17:16 UTC)

Sääennuste

Tämä raportti tehtiin 5 tuntia ja 56 minuuttia sitten, kello 11.20 UTC
Ennuste voimassa 13. päivästä klo 12 UTC - 14. päivään klo 12 UTC
Tuuli 8 kn etelästä
Näkyvyys: 10 km
Hajonneita pilviä 25000 ft:n korkeudessa

TAF: KPEQ 131120Z 1312/1412 18008KT P6SM BKN250

Säähavainnot ja -ennusteet yli 4000 lentoasemalta (METAR- ja TAF-raportit).

Käytössä olevat sääasemat on merkitty karttaan keltaisilla ja punaisilla pisteillä.

Aseta hiiri pisteen päälle nähdäksesi sääaseman nimen.

Klikkaa sitten nähdäksesi säähavainnot ja -ennusteet.

Kartan vaihtaminen: klikkaa mustalla rastilla varustettuja vihreitä pisteitä, niin voit zoomata sisään; viivalla varustettua vihreää pistettä, niin voit zoomata ulos tai vihreitä nuolia, niin pääset viereisille kartoille.


METAR-TAF: